This is the latest recevied weather packets stored in our database for station/object HS1AXC-1. If no packets are shown the sender has not sent any weather packets the latest 1 day(s).
| Time | Temp. | Humidity | Pressure | Rain* | Wind** | Luminosity | Snow |
|---|---|---|---|---|---|---|---|
| 1836274763 | 33.33° C | 75% | 1009 hPa | - | 0 m/s | 3 W/m² | - |
| 1836274141 | 32.78° C | 80% | 1009 hPa | - | 0 m/s | 3 W/m² | - |
| 1778037647 | 36.67° C | 64% | 1010 hPa | - | 0 m/s | 1 W/m² | - |
| 1778037025 | 36.11° C | 67% | 1010 hPa | - | 0 m/s | 1 W/m² | - |
| 1778036403 | 36.11° C | 67% | 1010 hPa | - | 0 m/s | 1 W/m² | - |
| 1778035781 | 35.56° C | 69% | 1010 hPa | - | 0 m/s | 0 W/m² | - |
| 1778035159 | 36.11° C | 70% | 1010 hPa | - | 0 m/s | 2 W/m² | - |
| 1778034537 | 36.67° C | 70% | 1010 hPa | - | 0 m/s | 2 W/m² | - |
| 1778033915 | 36.11° C | 73% | 1010 hPa | - | 0 m/s | 2 W/m² | - |
| 1778033293 | 35.56° C | 73% | 1010 hPa | - | 0 m/s | 2 W/m² | - |
| 1778032671 | 35° C | 76% | 1010 hPa | - | 0 m/s | 2 W/m² | - |
| 1778032049 | 35° C | 76% | 1010 hPa | - | 0 m/s | 2 W/m² | - |
| 1778031426 | 35° C | 75% | 1010 hPa | - | 0 m/s | 2 W/m² | - |
| 1778030805 | 35° C | 76% | 1010 hPa | - | 0 m/s | 1 W/m² | - |
| 1778030185 | 35° C | 76% | 1010 hPa | - | 0 m/s | 1 W/m² | - |
| 1778029560 | 34.44° C | 76% | 1010 hPa | - | 0 m/s | 1 W/m² | - |
| 1778028940 | 34.44° C | 76% | 1010 hPa | - | 0 m/s | 1 W/m² | - |
| 1778028316 | 33.89° C | 78% | 1010 hPa | - | 0 m/s | 1 W/m² | - |
| 1778027072 | 33.89° C | 80% | 1010 hPa | - | 0 m/s | 1 W/m² | - |
| 1778026457 | 33.89° C | 82% | 1010 hPa | - | 0 m/s | 0 W/m² | - |
| 1778025828 | 33.33° C | 83% | 1010 hPa | - | 0 m/s | 0 W/m² | - |
| 1778025206 | 33.33° C | 84% | 1009 hPa | - | 0 m/s | 0 W/m² | - |
| 1778024585 | 33.33° C | 85% | 1009 hPa | - | 0 m/s | 0 W/m² | - |
| 1778023962 | 33.33° C | 86% | 1009 hPa | - | 0 m/s | 0 W/m² | - |
| 1778023340 | 33.33° C | 86% | 1009 hPa | - | 0 m/s | 0 W/m² | - |
* Rain since midnight (hover to see other rain measurements)
** Current wind speed in m/s (hover to see current wind gust speed)